Time;durP1;ratioP1;P1;durP2;ratioP2;P2;SDS_P1;SDS_P2;PMS_P1;PMS_P2;Temp;Humidity;BMP_temperature;BMP_pressure;BME280_temperature;BME280_humidity;BME280_pressure;Samples;Min_cycle;Max_cycle;Signal;HPM_P1;HPM_P2
2021/12/12 00:02:19;;;;;;;11.73;4.07;;;4.20;99.90;;;;;;5030973;28;20961;-68
2021/12/12 00:04:47;;;;;;;10.27;4.80;;;4.50;99.90;;;;;;5021866;28;20493;-70
2021/12/12 00:07:21;;;;;;;7.87;4.60;;;4.10;99.90;;;;;;5025568;28;20529;-69
2021/12/12 00:09:51;;;;;;;15.20;4.90;;;4.00;99.90;;;;;;5027074;28;20459;-69
2021/12/12 00:12:23;;;;;;;11.33;4.63;;;4.00;99.90;;;;;;5018895;28;20457;-68
2021/12/12 00:14:51;;;;;;;7.97;4.07;;;3.90;99.90;;;;;;5016291;28;20772;-68
2021/12/12 00:17:20;;;;;;;8.80;3.90;;;3.90;99.90;;;;;;5008834;28;20417;-68
2021/12/12 00:19:46;;;;;;;10.33;3.97;;;3.90;99.90;;;;;;5019828;28;20480;-68
2021/12/12 00:22:18;;;;;;;6.37;3.87;;;3.90;99.90;;;;;;5022309;28;20429;-68
2021/12/12 00:24:45;;;;;;;10.63;4.27;;;3.90;99.90;;;;;;5024319;28;20506;-69
2021/12/12 00:27:11;;;;;;;9.47;4.20;;;3.90;99.90;;;;;;5029588;28;20428;-69
2021/12/12 00:29:37;;;;;;;8.63;4.03;;;3.80;99.90;;;;;;5029985;28;20973;-70
2021/12/12 00:32:10;;;;;;;10.03;4.63;;;3.80;99.90;;;;;;5023296;28;20734;-69
2021/12/12 00:34:44;;;;;;;16.17;4.70;;;3.70;99.90;;;;;;5009717;28;20442;-69
2021/12/12 00:37:10;;;;;;;13.53;5.40;;;3.60;99.90;;;;;;5024743;28;20424;-68
2021/12/12 00:39:39;;;;;;;15.50;5.60;;;3.40;99.90;;;;;;5040167;28;20515;-68
2021/12/12 00:42:20;;;;;;;12.27;6.17;;;3.40;99.90;;;;;;5033652;28;20449;-68
2021/12/12 00:44:49;;;;;;;9.00;5.20;;;3.30;99.90;;;;;;5011631;28;20449;-70
2021/12/12 00:47:17;;;;;;;11.23;5.60;;;3.20;99.90;;;;;;5009897;28;20433;-68
2021/12/12 00:49:43;;;;;;;8.90;5.20;;;3.20;99.90;;;;;;5010693;28;21070;-68
2021/12/12 00:52:11;;;;;;;7.73;4.47;;;3.10;99.90;;;;;;5013795;28;20500;-68
2021/12/12 00:54:38;;;;;;;15.83;4.60;;;3.10;99.90;;;;;;5010172;28;20522;-69
2021/12/12 00:57:08;;;;;;;9.50;5.00;;;3.00;99.90;;;;;;5029140;28;20420;-68
2021/12/12 00:59:35;;;;;;;8.83;3.97;;;2.90;99.90;;;;;;5029565;28;20475;-68
2021/12/12 01:02:03;;;;;;;9.90;5.10;;;3.10;99.90;;;;;;5026334;28;20451;-69
2021/12/12 01:04:50;;;;;;;9.83;4.87;;;2.80;99.90;;;;;;5028264;28;20489;-68
2021/12/12 01:07:22;;;;;;;7.97;4.73;;;2.70;99.90;;;;;;5010080;28;20436;-66
2021/12/12 01:09:54;;;;;;;10.63;4.77;;;2.60;99.90;;;;;;5030236;28;20429;-68
2021/12/12 01:12:29;;;;;;;8.47;5.10;;;2.60;99.90;;;;;;5012274;28;20493;-67
2021/12/12 01:15:32;;;;;;;12.90;6.67;;;2.60;99.90;;;;;;5026130;28;20424;-68
2021/12/12 01:18:01;;;;;;;10.73;5.63;;;2.60;99.90;;;;;;5020559;28;20978;-69
2021/12/12 01:20:52;;;;;;;13.90;5.57;;;2.60;99.90;;;;;;5011125;28;20444;-68
2021/12/12 01:23:36;;;;;;;11.33;5.20;;;2.60;99.90;;;;;;5034799;28;20439;-70
2021/12/12 01:26:05;;;;;;;16.20;5.60;;;2.80;99.90;;;;;;5019492;28;20488;-69
2021/12/12 01:28:33;;;;;;;17.20;4.93;;;2.80;99.90;;;;;;5007858;28;20954;-68
2021/12/12 01:31:01;;;;;;;9.83;4.70;;;2.70;99.90;;;;;;5014671;28;20746;-68
2021/12/12 01:33:35;;;;;;;11.80;5.47;;;2.70;99.90;;;;;;5009354;28;20509;-68
2021/12/12 01:36:08;;;;;;;13.03;4.60;;;2.70;99.90;;;;;;5018027;28;20440;-70
2021/12/12 01:38:53;;;;;;;11.57;5.20;;;2.80;99.90;;;;;;5031047;28;20447;-68
2021/12/12 01:41:41;;;;;;;9.63;4.70;;;2.80;99.90;;;;;;5027111;28;20452;-68
2021/12/12 01:44:16;;;;;;;13.27;5.13;;;2.80;99.90;;;;;;5009219;28;20449;-68
2021/12/12 01:47:06;;;;;;;12.50;4.80;;;2.90;99.90;;;;;;5010221;28;20883;-68
2021/12/12 01:49:34;;;;;;;8.43;5.53;;;2.90;99.90;;;;;;5007288;28;20719;-69
2021/12/12 01:52:00;;;;;;;13.63;5.03;;;2.90;99.90;;;;;;5024587;28;20814;-69
2021/12/12 01:54:41;;;;;;;18.43;8.13;;;3.10;99.90;;;;;;5028524;28;20405;-68
2021/12/12 01:57:07;;;;;;;11.40;5.50;;;3.00;99.90;;;;;;5028376;28;20526;-69
2021/12/12 01:59:36;;;;;;;13.97;7.33;;;3.00;99.90;;;;;;5028681;28;20531;-69
2021/12/12 02:02:09;;;;;;;11.70;5.20;;;3.00;99.90;;;;;;5010080;28;20328;-68
2021/12/12 02:04:41;;;;;;;8.33;5.00;;;3.10;99.90;;;;;;5024367;28;20483;-68
2021/12/12 02:07:09;;;;;;;9.70;5.57;;;2.90;99.90;;;;;;5010243;28;20429;-68
2021/12/12 02:09:35;;;;;;;13.63;6.70;;;3.00;99.90;;;;;;5037063;28;20428;-68
2021/12/12 02:12:02;;;;;;;11.73;5.70;;;2.90;99.90;;;;;;5030967;28;20416;-68
2021/12/12 02:14:31;;;;;;;9.50;5.40;;;2.90;99.90;;;;;;5028306;28;20990;-68
2021/12/12 02:17:02;;;;;;;10.00;5.20;;;2.90;99.90;;;;;;5016190;28;20747;-69
2021/12/12 02:19:36;;;;;;;11.80;5.20;;;2.90;99.90;;;;;;5027678;28;20452;-68
2021/12/12 02:22:31;;;;;;;11.20;4.40;;;2.90;99.90;;;;;;5020259;28;20485;-69
2021/12/12 02:36:19;;;;;;;9.07;4.10;;;2.60;99.90;;;;;;5007878;28;20453;-68
2021/12/12 02:38:46;;;;;;;8.17;5.03;;;2.30;99.90;;;;;;5034239;28;20425;-68
2021/12/12 02:41:15;;;;;;;8.57;5.30;;;2.30;99.90;;;;;;5026138;28;20903;-68
2021/12/12 02:43:49;;;;;;;10.40;5.27;;;2.30;99.90;;;;;;5027939;28;20420;-68
2021/12/12 02:46:18;;;;;;;11.73;5.60;;;2.20;99.90;;;;;;5015143;28;20470;-69
2021/12/12 02:48:47;;;;;;;10.93;5.33;;;2.10;99.90;;;;;;5005739;28;20480;-68
2021/12/12 02:51:18;;;;;;;10.03;4.43;;;2.00;99.90;;;;;;5020143;28;20424;-68
2021/12/12 02:53:52;;;;;;;15.97;5.13;;;2.00;99.90;;;;;;5012834;28;20428;-69
2021/12/12 02:56:37;;;;;;;17.23;5.60;;;2.00;99.90;;;;;;5026412;28;20462;-68
2021/12/12 02:59:07;;;;;;;9.10;4.37;;;2.10;99.90;;;;;;5023280;28;20965;-68
2021/12/12 03:01:52;;;;;;;9.60;3.90;;;2.10;99.90;;;;;;5006809;28;20440;-68
2021/12/12 03:04:18;;;;;;;7.13;4.00;;;2.20;99.90;;;;;;5006238;28;20457;-67
2021/12/12 03:06:45;;;;;;;8.47;3.97;;;2.30;99.90;;;;;;5009389;28;20423;-68
2021/12/12 03:09:26;;;;;;;16.00;4.00;;;2.50;99.90;;;;;;5029112;28;20190;-69
2021/12/12 03:11:57;;;;;;;10.13;3.70;;;2.50;99.90;;;;;;5006904;28;20523;-68
2021/12/12 03:14:24;;;;;;;6.43;3.70;;;2.60;99.90;;;;;;5024654;28;20433;-68
2021/12/12 03:16:50;;;;;;;11.00;4.10;;;2.70;99.90;;;;;;5010225;28;20421;-69
2021/12/12 03:19:20;;;;;;;5.63;3.93;;;2.80;99.90;;;;;;5017731;28;20566;-67
2021/12/12 03:21:46;;;;;;;5.40;3.70;;;2.80;99.90;;;;;;5023631;28;20425;-68
2021/12/12 03:24:19;;;;;;;4.17;3.40;;;2.90;99.90;;;;;;5024429;28;20510;-67
2021/12/12 03:26:47;;;;;;;9.10;4.17;;;2.90;99.90;;;;;;5023937;28;20420;-67
2021/12/12 03:29:13;;;;;;;10.33;3.87;;;2.90;99.90;;;;;;5007667;28;20479;-67
2021/12/12 03:31:43;;;;;;;5.77;3.40;;;2.90;99.90;;;;;;5010362;28;20397;-69
2021/12/12 03:34:14;;;;;;;9.43;3.60;;;3.00;99.90;;;;;;5026624;28;20377;-68
2021/12/12 03:36:41;;;;;;;7.00;3.73;;;3.10;99.90;;;;;;5025815;28;21122;-68
2021/12/12 03:39:12;;;;;;;7.00;3.63;;;3.20;99.90;;;;;;5030209;28;20455;-68
2021/12/12 03:41:40;;;;;;;12.40;4.00;;;3.20;99.90;;;;;;5045065;28;20412;-69
2021/12/12 03:44:09;;;;;;;7.70;4.27;;;3.50;99.90;;;;;;5026533;28;20503;-68
2021/12/12 03:46:36;;;;;;;9.60;3.60;;;3.20;99.90;;;;;;5016056;28;20468;-67
2021/12/12 03:49:03;;;;;;;7.07;3.90;;;3.00;99.90;;;;;;5006057;28;20437;-70
2021/12/12 03:51:29;;;;;;;8.50;4.20;;;3.30;99.90;;;;;;5019558;28;20504;-68
2021/12/12 03:53:56;;;;;;;8.27;4.07;;;3.00;99.90;;;;;;5025225;28;20911;-69
2021/12/12 03:56:22;;;;;;;7.40;4.40;;;3.10;99.90;;;;;;5023830;28;20421;-67
2021/12/12 03:58:48;;;;;;;5.33;3.40;;;0.80;99.90;;;;;;5025506;28;20791;-68
2021/12/12 04:01:22;;;;;;;8.27;4.43;;;2.80;99.90;;;;;;5015214;28;20861;-69
2021/12/12 04:03:51;;;;;;;5.93;3.80;;;5.10;99.90;;;;;;5006319;28;20448;-68
2021/12/12 04:06:22;;;;;;;7.90;4.20;;;2.70;99.90;;;;;;5017476;28;21015;-69
2021/12/12 04:08:50;;;;;;;6.80;5.10;;;2.50;99.90;;;;;;5032121;28;20454;-68
2021/12/12 04:11:24;;;;;;;6.90;3.87;;;2.40;99.90;;;;;;5025783;28;20938;-68
2021/12/12 04:13:53;;;;;;;10.40;4.23;;;2.40;99.90;;;;;;5022744;28;20427;-67
2021/12/12 04:16:21;;;;;;;11.93;4.60;;;2.30;99.90;;;;;;5011716;28;20429;-70
2021/12/12 04:18:48;;;;;;;8.50;3.63;;;2.10;99.90;;;;;;5013990;28;20479;-68
2021/12/12 04:21:18;;;;;;;7.33;3.90;;;2.40;99.90;;;;;;5029722;28;20417;-68
2021/12/12 04:23:43;;;;;;;6.33;3.90;;;2.10;99.90;;;;;;5015753;28;20427;-68
2021/12/12 04:26:10;;;;;;;5.63;4.10;;;2.00;99.90;;;;;;5029662;28;20460;-70
2021/12/12 04:28:36;;;;;;;9.47;5.17;;;1.90;99.90;;;;;;5011484;28;20924;-68
2021/12/12 04:31:02;;;;;;;7.40;4.57;;;2.30;99.90;;;;;;5010630;28;20509;-68
2021/12/12 04:33:27;;;;;;;10.60;5.27;;;1.80;99.90;;;;;;5024887;28;20174;-70
2021/12/12 04:35:53;;;;;;;10.97;4.57;;;1.80;99.90;;;;;;5030257;28;20181;-69
2021/12/12 04:38:18;;;;;;;10.27;4.63;;;2.20;99.90;;;;;;5029899;28;20220;-68
2021/12/12 04:40:44;;;;;;;9.57;4.47;;;1.70;99.90;;;;;;5018858;28;20656;-69
2021/12/12 04:43:10;;;;;;;9.80;4.80;;;2.10;99.90;;;;;;5023708;28;20208;-68
2021/12/12 04:46:03;;;;;;;5.67;4.30;;;1.70;99.90;;;;;;5022726;28;20195;-68
2021/12/12 04:51:58;;;;;;;8.87;4.70;;;1.60;99.90;;;;;;5026654;28;20437;-69
2021/12/12 04:54:38;;;;;;;8.00;4.70;;;1.60;99.90;;;;;;5009860;28;20467;-68
2021/12/12 04:57:27;;;;;;;7.00;4.53;;;1.60;99.90;;;;;;5029054;28;20821;-68
2021/12/12 05:00:19;;;;;;;7.20;4.13;;;1.60;99.90;;;;;;5024075;28;20580;-69
2021/12/12 05:03:13;;;;;;;10.70;4.63;;;1.60;99.90;;;;;;5028309;28;20885;-68
2021/12/12 05:05:56;;;;;;;12.37;4.60;;;1.50;99.90;;;;;;5023202;28;20465;-68
2021/12/12 05:08:27;;;;;;;10.33;4.60;;;;;;;;;;5009614;28;20951;-68
2021/12/12 05:11:01;;;;;;;8.33;4.97;;;1.40;99.90;;;;;;5019366;28;20481;-68
2021/12/12 05:13:56;;;;;;;11.27;4.80;;;1.40;99.90;;;;;;5030662;28;20456;-68
2021/12/12 05:16:32;;;;;;;12.43;5.27;;;1.40;99.90;;;;;;5015605;28;20800;-69
2021/12/12 05:19:06;;;;;;;7.63;4.57;;;1.30;99.90;;;;;;5008262;28;20926;-69
2021/12/12 05:21:36;;;;;;;9.50;4.30;;;1.30;99.90;;;;;;5012532;28;20810;-68
2021/12/12 05:24:05;;;;;;;8.07;4.13;;;1.80;99.90;;;;;;5029261;28;20516;-69
2021/12/12 05:26:35;;;;;;;8.23;4.27;;;1.30;99.90;;;;;;5014951;28;20460;-68
2021/12/12 05:29:05;;;;;;;7.67;3.83;;;1.20;99.90;;;;;;5007493;28;20553;-68
2021/12/12 05:31:33;;;;;;;7.93;3.80;;;1.20;99.90;;;;;;5010514;28;20425;-68
2021/12/12 05:33:59;;;;;;;7.00;4.50;;;1.30;99.90;;;;;;5008576;28;20406;-68
2021/12/12 05:36:26;;;;;;;7.67;4.30;;;1.70;99.90;;;;;;5021173;28;20425;-68
2021/12/12 05:38:53;;;;;;;9.67;4.30;;;1.50;99.90;;;;;;5027055;28;20447;-69
2021/12/12 05:41:21;;;;;;;10.97;4.03;;;1.60;99.90;;;;;;5030294;28;20478;-70
2021/12/12 05:43:49;;;;;;;9.23;3.57;;;1.80;99.90;;;;;;5039405;28;20415;-68
2021/12/12 05:46:18;;;;;;;5.90;3.73;;;1.60;99.90;;;;;;5022691;28;20445;-69
2021/12/12 05:48:45;;;;;;;7.03;3.67;;;1.80;99.90;;;;;;5008024;28;20879;-68
2021/12/12 05:51:10;;;;;;;11.87;4.67;;;2.00;99.90;;;;;;5020649;28;20431;-69
2021/12/12 05:53:36;;;;;;;7.27;4.27;;;1.90;99.90;;;;;;5027632;28;20495;-68
2021/12/12 05:56:04;;;;;;;7.13;3.83;;;2.10;99.90;;;;;;5018094;28;20191;-69
2021/12/12 05:58:31;;;;;;;8.10;3.73;;;2.10;99.90;;;;;;5008250;28;20429;-68
2021/12/12 06:01:05;;;;;;;8.00;4.50;;;2.20;99.90;;;;;;5011283;28;20417;-68
2021/12/12 06:03:33;;;;;;;7.90;4.63;;;2.10;99.90;;;;;;5008021;28;20887;-68
2021/12/12 06:06:05;;;;;;;7.77;4.60;;;2.30;99.90;;;;;;5008943;28;20611;-69
2021/12/12 06:08:31;;;;;;;7.00;3.70;;;2.20;99.90;;;;;;5015577;28;20782;-66
2021/12/12 06:10:58;;;;;;;7.10;4.00;;;2.20;99.90;;;;;;5030248;28;20517;-68
2021/12/12 06:13:25;;;;;;;6.80;3.63;;;2.60;99.90;;;;;;5035345;28;20409;-68
2021/12/12 06:15:54;;;;;;;7.33;4.50;;;2.10;99.90;;;;;;5010060;28;20425;-67
2021/12/12 06:18:22;;;;;;;7.10;3.40;;;2.40;99.90;;;;;;5007696;28;20479;-68
2021/12/12 06:20:48;;;;;;;6.77;3.50;;;2.20;99.90;;;;;;5007354;28;20477;-68
2021/12/12 06:23:15;;;;;;;7.40;3.80;;;2.30;99.90;;;;;;5020333;28;20417;-69
2021/12/12 06:25:42;;;;;;;6.90;4.50;;;2.30;99.90;;;;;;5024064;28;20556;-68
2021/12/12 06:28:15;;;;;;;9.97;5.43;;;2.20;99.90;;;;;;5027353;28;20475;-68
2021/12/12 06:30:41;;;;;;;8.13;5.00;;;2.20;99.90;;;;;;5020617;28;20449;-68
2021/12/12 06:33:10;;;;;;;9.90;4.57;;;2.30;99.90;;;;;;5023503;28;20428;-67
2021/12/12 06:35:36;;;;;;;9.77;4.40;;;2.20;99.90;;;;;;5021167;28;20432;-68
2021/12/12 06:38:07;;;;;;;8.50;4.30;;;2.20;99.90;;;;;;5017317;28;20509;-68
2021/12/12 06:40:33;;;;;;;7.77;4.20;;;2.40;99.90;;;;;;5022745;28;20487;-69
2021/12/12 06:43:03;;;;;;;6.13;3.87;;;2.40;99.90;;;;;;5032941;28;20429;-68
2021/12/12 06:45:29;;;;;;;8.30;4.67;;;2.70;99.90;;;;;;5014146;28;20465;-68
2021/12/12 06:47:56;;;;;;;12.43;5.07;;;2.60;99.90;;;;;;5008014;28;20504;-67
2021/12/12 06:50:24;;;;;;;12.20;4.07;;;2.30;99.90;;;;;;5007498;28;20281;-69
2021/12/12 06:52:51;;;;;;;10.40;4.60;;;2.50;99.90;;;;;;5008216;28;20409;-67
2021/12/12 06:55:16;;;;;;;7.80;4.40;;;2.50;99.90;;;;;;5016328;28;20436;-67
2021/12/12 06:57:42;;;;;;;6.20;3.83;;;2.20;99.90;;;;;;5014197;28;20430;-67
2021/12/12 07:00:11;;;;;;;6.13;3.53;;;2.20;99.90;;;;;;5017532;28;20277;-68
2021/12/12 07:02:39;;;;;;;9.20;3.97;;;2.20;99.90;;;;;;5025884;28;20208;-68
2021/12/12 07:05:06;;;;;;;6.30;3.80;;;2.60;99.90;;;;;;5018998;28;20515;-69
2021/12/12 07:07:32;;;;;;;7.60;4.00;;;2.10;99.90;;;;;;5007919;28;20425;-68
2021/12/12 07:09:57;;;;;;;15.40;4.20;;;2.20;99.90;;;;;;5017208;28;20446;-68
2021/12/12 07:12:24;;;;;;;8.77;4.20;;;2.20;99.90;;;;;;5033048;28;20185;-68
2021/12/12 07:14:52;;;;;;;6.17;3.83;;;2.20;99.90;;;;;;5026137;28;20190;-68
2021/12/12 07:17:18;;;;;;;5.40;3.63;;;2.20;99.90;;;;;;5019939;28;20787;-68
2021/12/12 07:19:44;;;;;;;12.10;4.50;;;2.30;99.90;;;;;;5006490;28;20444;-68
2021/12/12 07:22:10;;;;;;;8.33;4.57;;;2.40;99.90;;;;;;5016183;28;20425;-68
2021/12/12 07:24:37;;;;;;;8.10;3.93;;;2.90;99.90;;;;;;5027430;28;20456;-67
2021/12/12 07:27:03;;;;;;;7.90;4.40;;;2.60;99.90;;;;;;5012840;28;20421;-68
2021/12/12 07:29:29;;;;;;;6.70;4.20;;;2.70;99.90;;;;;;5010018;28;20456;-68
2021/12/12 07:31:56;;;;;;;10.90;4.20;;;2.80;99.90;;;;;;5011861;28;20887;-67
2021/12/12 07:34:22;;;;;;;8.40;4.73;;;2.90;99.90;;;;;;5017450;28;20425;-67
2021/12/12 07:36:55;;;;;;;8.87;4.67;;;2.90;99.90;;;;;;5018286;28;20431;-67
2021/12/12 07:39:23;;;;;;;7.40;4.70;;;3.00;99.90;;;;;;5010094;28;20489;-67
2021/12/12 07:41:52;;;;;;;8.30;5.20;;;3.10;99.90;;;;;;5029512;28;20477;-67
2021/12/12 07:44:20;;;;;;;10.17;4.67;;;3.10;99.90;;;;;;5037506;28;20432;-68
2021/12/12 07:46:47;;;;;;;10.37;6.57;;;3.60;99.90;;;;;;5023301;28;20923;-67
2021/12/12 07:49:17;;;;;;;8.40;5.40;;;3.30;99.90;;;;;;5026138;28;20543;-68
2021/12/12 07:51:43;;;;;;;9.73;5.37;;;3.30;99.90;;;;;;5017623;28;20432;-67
2021/12/12 07:54:09;;;;;;;8.20;5.10;;;3.50;99.90;;;;;;5029982;28;20466;-68
2021/12/12 07:56:41;;;;;;;7.97;4.50;;;3.70;99.90;;;;;;5027795;28;20531;-67
2021/12/12 07:59:09;;;;;;;13.00;6.20;;;3.80;99.90;;;;;;5031110;28;20509;-67
2021/12/12 08:01:36;;;;;;;11.40;5.43;;;3.80;99.90;;;;;;5030219;28;20432;-69
2021/12/12 08:04:03;;;;;;;8.17;5.30;;;4.20;99.90;;;;;;5030659;28;20938;-67
2021/12/12 08:06:30;;;;;;;9.20;5.50;;;4.00;99.90;;;;;;5030430;28;20471;-68
2021/12/12 08:08:57;;;;;;;8.13;4.60;;;4.10;99.90;;;;;;5030696;28;20432;-67
2021/12/12 08:11:27;;;;;;;12.53;5.43;;;4.10;99.90;;;;;;5030097;28;20466;-68
2021/12/12 08:13:54;;;;;;;10.63;5.77;;;4.20;99.90;;;;;;5036790;28;20416;-67
2021/12/12 08:16:21;;;;;;;9.00;5.70;;;4.30;99.90;;;;;;5027508;28;20436;-67
2021/12/12 08:18:47;;;;;;;9.27;5.47;;;4.30;99.90;;;;;;5029965;28;20408;-67
2021/12/12 08:21:15;;;;;;;6.70;4.70;;;4.40;99.90;;;;;;5027780;28;20439;-68
2021/12/12 08:23:42;;;;;;;7.90;5.30;;;4.40;99.90;;;;;;5027545;28;20984;-67
2021/12/12 08:26:10;;;;;;;7.30;4.70;;;4.40;99.90;;;;;;5025035;28;20549;-67
2021/12/12 08:28:36;;;;;;;12.47;5.40;;;4.40;99.90;;;;;;5027867;28;20432;-68
2021/12/12 08:31:02;;;;;;;10.17;5.03;;;4.40;99.90;;;;;;5024830;28;20445;-68
2021/12/12 08:33:29;;;;;;;9.63;5.13;;;4.50;99.90;;;;;;5026184;28;20791;-68
2021/12/12 08:35:56;;;;;;;7.50;4.60;;;4.50;99.90;;;;;;5010176;28;20967;-68
2021/12/12 08:38:22;;;;;;;10.37;5.50;;;4.60;99.90;;;;;;5021645;28;20430;-72
2021/12/12 08:40:51;;;;;;;9.17;5.13;;;4.60;99.90;;;;;;5025432;28;20976;-69
2021/12/12 15:29:30;;;;;;;6.53;3.77;;;5.40;99.90;;;;;;5062470;28;20731;-68
2021/12/12 15:32:08;;;;;;;6.00;4.23;;;5.40;99.90;;;;;;5041924;28;20404;-68
2021/12/12 15:34:37;;;;;;;5.30;3.93;;;5.50;99.90;;;;;;5026081;28;20418;-68
2021/12/12 15:37:06;;;;;;;8.50;4.83;;;5.50;99.90;;;;;;5032809;28;20443;-68
2021/12/12 15:39:46;;;;;;;7.80;5.43;;;5.90;99.90;;;;;;5039377;28;20543;-69
2021/12/12 15:42:14;;;;;;;4.80;3.63;;;6.00;99.90;;;;;;5026402;28;20440;-68
2021/12/12 15:44:45;;;;;;;6.80;4.97;;;6.20;99.90;;;;;;5053969;28;20502;-68
2021/12/12 15:47:18;;;;;;;7.77;5.00;;;6.20;99.90;;;;;;5035630;28;20753;-70
2021/12/12 15:49:50;;;;;;;8.07;4.13;;;6.40;99.90;;;;;;5027254;28;20502;-68
2021/12/12 15:52:36;;;;;;;5.87;4.37;;;6.40;99.90;;;;;;5025222;28;20514;-68
2021/12/12 15:55:28;;;;;;;5.93;4.53;;;6.50;99.90;;;;;;5034178;28;20866;-68
2021/12/12 15:57:56;;;;;;;8.23;4.60;;;6.50;99.90;;;;;;5037639;28;20825;-68
2021/12/12 16:00:35;;;;;;;7.30;3.63;;;6.60;99.90;;;;;;5024954;28;20437;-68
2021/12/12 16:03:08;;;;;;;5.27;3.80;;;6.60;99.90;;;;;;5037707;28;20775;-68
2021/12/12 16:05:42;;;;;;;4.90;3.57;;;6.60;99.90;;;;;;5029749;28;20416;-68
2021/12/12 16:08:14;;;;;;;5.90;3.63;;;6.60;99.90;;;;;;5027911;28;20481;-69
2021/12/12 16:10:44;;;;;;;6.60;3.50;;;6.60;99.90;;;;;;5031669;28;20439;-68
2021/12/12 16:13:37;;;;;;;5.00;3.40;;;6.60;99.90;;;;;;5025531;28;20447;-68
2021/12/12 16:16:07;;;;;;;8.23;4.40;;;6.60;99.90;;;;;;5031093;28;20404;-68
2021/12/12 16:18:37;;;;;;;5.67;4.00;;;6.70;99.90;;;;;;5042236;28;20481;-68
2021/12/12 16:21:07;;;;;;;5.27;3.87;;;6.70;99.90;;;;;;5040897;28;21006;-69
2021/12/12 16:23:33;;;;;;;5.13;3.80;;;6.80;99.90;;;;;;5036300;28;20541;-69
2021/12/12 16:26:04;;;;;;;7.03;4.80;;;6.80;99.90;;;;;;5035027;28;20471;-69
2021/12/12 16:28:34;;;;;;;9.33;5.50;;;6.80;99.90;;;;;;5028729;28;20542;-68
2021/12/12 16:31:07;;;;;;;10.67;6.20;;;6.80;99.90;;;;;;5037804;28;20523;-69
2021/12/12 16:33:47;;;;;;;8.53;4.00;;;6.80;99.90;;;;;;5030840;28;20434;-68
2021/12/12 16:36:21;;;;;;;9.67;4.53;;;6.90;99.90;;;;;;5028394;28;21002;-68
2021/12/12 16:38:48;;;;;;;7.70;4.37;;;6.80;99.90;;;;;;5039806;28;20415;-68
2021/12/12 16:41:14;;;;;;;7.13;4.87;;;6.80;99.90;;;;;;5015367;28;20444;-68
2021/12/12 16:43:58;;;;;;;7.40;4.10;;;6.80;99.90;;;;;;5014400;28;20837;-69
2021/12/12 16:46:46;;;;;;;6.60;4.37;;;6.80;99.90;;;;;;5013077;28;20512;-69
2021/12/12 16:49:21;;;;;;;7.23;4.43;;;6.80;99.90;;;;;;5024735;28;20541;-69
2021/12/12 16:51:54;;;;;;;13.87;6.77;;;6.80;99.90;;;;;;5013921;28;20915;-69
2021/12/12 16:54:29;;;;;;;13.13;7.10;;;6.90;99.90;;;;;;5026258;28;20511;-69
2021/12/12 16:56:59;;;;;;;13.23;5.60;;;6.90;99.90;;;;;;5020872;28;20420;-68
2021/12/12 16:59:34;;;;;;;6.10;4.43;;;6.90;99.90;;;;;;5010407;28;20521;-68
2021/12/12 17:02:01;;;;;;;7.43;5.60;;;6.90;99.90;;;;;;5017609;28;20425;-68
2021/12/12 17:04:29;;;;;;;10.10;4.65;;;6.90;99.90;;;;;;5022870;28;20426;-68
2021/12/12 17:07:06;;;;;;;7.90;4.90;;;7.00;99.90;;;;;;5024144;28;20420;-68
2021/12/12 17:09:31;;;;;;;7.10;4.50;;;7.00;99.90;;;;;;5039678;28;20536;-69
2021/12/12 17:12:11;;;;;;;7.37;4.53;;;7.00;99.90;;;;;;5043167;28;20911;-68
2021/12/12 17:14:44;;;;;;;7.57;5.40;;;7.00;99.90;;;;;;5050171;28;20173;-68
2021/12/12 17:17:12;;;;;;;6.43;4.83;;;6.90;99.90;;;;;;5012405;28;20445;-68
2021/12/12 17:19:40;;;;;;;6.17;4.20;;;6.90;99.90;;;;;;5009279;28;20619;-69
2021/12/12 17:22:15;;;;;;;10.20;5.57;;;6.90;99.90;;;;;;5026805;28;20918;-68
2021/12/12 17:24:46;;;;;;;6.33;4.63;;;6.90;99.90;;;;;;5027827;28;20439;-68
2021/12/12 17:27:16;;;;;;;7.23;4.10;;;6.90;99.90;;;;;;5028014;28;20409;-68
2021/12/12 17:29:45;;;;;;;6.20;4.17;;;6.90;99.90;;;;;;5027758;28;20840;-69
2021/12/12 17:32:28;;;;;;;10.93;5.67;;;6.90;99.90;;;;;;5021096;28;20479;-68
2021/12/12 17:34:57;;;;;;;9.00;4.70;;;6.90;99.90;;;;;;5009741;28;20426;-69
2021/12/12 17:37:27;;;;;;;7.80;5.00;;;6.90;99.90;;;;;;5026637;28;20427;-68
2021/12/12 17:40:11;;;;;;;6.97;5.00;;;6.90;99.90;;;;;;5036731;28;20531;-68
2021/12/12 17:42:57;;;;;;;7.53;5.00;;;6.90;99.90;;;;;;5030343;28;20508;-68
2021/12/12 17:45:53;;;;;;;7.20;4.57;;;6.90;99.90;;;;;;5021049;28;20838;-69
2021/12/12 17:48:40;;;;;;;7.13;5.00;;;6.90;99.90;;;;;;5010647;28;20845;-69
2021/12/12 17:51:47;;;;;;;7.67;4.57;;;6.90;99.90;;;;;;5024308;28;20494;-69
2021/12/12 17:54:27;;;;;;;8.57;4.57;;;7.00;99.90;;;;;;5015721;28;20768;-69
2021/12/12 17:57:17;;;;;;;7.70;4.67;;;7.00;99.90;;;;;;5007937;28;20563;-69
2021/12/12 17:59:54;;;;;;;9.17;4.70;;;6.90;99.90;;;;;;5026042;28;20432;-69
2021/12/12 18:02:24;;;;;;;7.60;5.07;;;6.90;99.90;;;;;;5027427;28;20412;-68
2021/12/12 18:04:51;;;;;;;6.30;4.60;;;6.90;99.90;;;;;;5020903;28;20612;-68
2021/12/12 18:07:55;;;;;;;8.77;4.50;;;6.90;99.90;;;;;;5030025;28;20460;-69
2021/12/12 18:10:38;;;;;;;10.03;4.73;;;6.90;99.90;;;;;;5042195;28;20602;-69
2021/12/12 18:13:10;;;;;;;9.63;4.87;;;6.90;99.90;;;;;;5041124;28;20427;-69
2021/12/12 18:15:47;;;;;;;10.40;5.00;;;6.80;99.90;;;;;;5023859;28;20775;-68
2021/12/12 18:18:54;;;;;;;9.47;5.53;;;6.80;99.90;;;;;;5028222;28;20482;-69
2021/12/12 18:21:22;;;;;;;9.53;5.13;;;6.80;99.90;;;;;;5024567;28;20432;-68
2021/12/12 18:23:50;;;;;;;10.80;5.53;;;6.80;99.90;;;;;;5013407;28;20522;-69
2021/12/12 18:26:33;;;;;;;8.80;4.83;;;6.70;99.90;;;;;;5020189;28;20539;-69
2021/12/12 18:29:05;;;;;;;7.57;4.30;;;6.80;99.90;;;;;;5028239;28;20468;-68
2021/12/12 18:31:41;;;;;;;11.50;4.97;;;6.80;99.90;;;;;;5012907;28;20410;-69
2021/12/12 18:34:12;;;;;;;7.67;4.80;;;6.70;99.90;;;;;;5007437;28;20486;-68
2021/12/12 18:36:49;;;;;;;8.60;4.87;;;8.00;99.90;;;;;;5017335;28;20523;-71
2021/12/12 18:39:25;;;;;;;9.53;5.50;;;7.20;99.90;;;;;;5028906;28;20497;-71
2021/12/12 18:42:01;;;;;;;14.33;5.70;;;7.40;99.90;;;;;;5025238;28;20420;-71
2021/12/12 18:44:31;;;;;;;19.30;11.53;;;7.80;99.90;;;;;;5026656;28;20578;-69
2021/12/12 18:47:01;;;;;;;11.83;7.77;;;7.80;99.90;;;;;;5026088;28;20462;-69
2021/12/12 18:49:33;;;;;;;14.43;7.40;;;7.30;99.90;;;;;;5007462;28;20469;-69
2021/12/12 18:52:11;;;;;;;13.63;7.90;;;7.20;99.90;;;;;;5024977;28;20432;-68
2021/12/12 18:54:45;;;;;;;12.10;6.53;;;7.10;99.90;;;;;;5026096;28;20534;-68
2021/12/12 18:57:19;;;;;;;13.83;6.70;;;7.00;99.90;;;;;;5022737;28;20451;-68
2021/12/12 18:59:53;;;;;;;21.77;10.60;;;6.90;99.90;;;;;;5019846;28;20429;-68
2021/12/12 19:02:28;;;;;;;13.27;6.93;;;6.90;99.90;;;;;;5009337;28;20440;-69
2021/12/12 19:04:57;;;;;;;10.10;6.53;;;6.90;99.90;;;;;;5007309;28;20458;-69
2021/12/12 19:07:23;;;;;;;11.37;7.00;;;6.90;99.90;;;;;;5029081;28;20424;-69
2021/12/12 19:09:54;;;;;;;15.43;7.40;;;6.90;99.90;;;;;;5038319;28;20538;-69
2021/12/12 19:12:42;;;;;;;9.80;7.00;;;6.90;99.90;;;;;;5008154;28;20944;-68
2021/12/12 19:15:22;;;;;;;14.50;9.00;;;6.70;99.90;;;;;;5012305;28;20578;-70
2021/12/12 19:18:02;;;;;;;16.60;7.63;;;6.70;99.90;;;;;;5019627;28;20508;-69
2021/12/12 19:20:33;;;;;;;16.00;9.50;;;6.60;99.90;;;;;;5010360;28;20449;-69
2021/12/12 19:23:00;;;;;;;14.40;6.60;;;6.60;99.90;;;;;;5026417;28;20735;-68
2021/12/12 19:25:27;;;;;;;11.43;7.70;;;5.10;99.90;;;;;;5026939;28;20556;-69
2021/12/12 19:27:57;;;;;;;19.77;11.47;;;6.60;99.90;;;;;;5025826;28;20605;-69
2021/12/12 19:30:37;;;;;;;18.80;8.87;;;6.60;99.90;;;;;;5026988;28;20433;-70
2021/12/12 19:33:17;;;;;;;14.30;9.40;;;6.80;99.90;;;;;;5022334;28;20735;-69
2021/12/12 19:35:45;;;;;;;19.37;10.17;;;6.50;99.90;;;;;;5024300;28;20412;-69
2021/12/12 19:38:17;;;;;;;13.73;7.40;;;6.60;99.90;;;;;;5029425;28;20420;-70
2021/12/12 19:40:54;;;;;;;23.57;13.20;;;6.50;99.90;;;;;;5041357;28;20436;-69
2021/12/12 19:43:24;;;;;;;15.57;9.53;;;6.40;99.90;;;;;;5006651;28;20420;-70
2021/12/12 19:45:57;;;;;;;11.40;6.90;;;6.50;99.90;;;;;;5015613;28;20405;-69
2021/12/12 19:48:32;;;;;;;10.77;7.40;;;6.30;99.90;;;;;;5026352;28;20456;-69
2021/12/12 19:50:58;;;;;;;14.00;9.17;;;6.30;99.90;;;;;;5016430;28;20432;-69
2021/12/12 19:53:25;;;;;;;11.33;7.00;;;6.30;99.90;;;;;;5026467;28;20405;-70
2021/12/12 19:55:54;;;;;;;15.87;9.27;;;6.30;99.90;;;;;;5017088;28;20861;-69
2021/12/12 19:58:30;;;;;;;15.53;8.50;;;6.30;99.90;;;;;;5012666;28;20433;-70
2021/12/12 20:01:06;;;;;;;15.20;8.33;;;6.30;99.90;;;;;;5041459;28;20439;-70
2021/12/12 20:03:38;;;;;;;19.27;12.30;;;6.30;99.90;;;;;;5020814;28;20424;-71
2021/12/12 20:06:08;;;;;;;16.83;10.83;;;6.30;99.90;;;;;;5012123;28;20436;-70
2021/12/12 20:08:41;;;;;;;13.70;9.23;;;6.30;99.90;;;;;;5026106;28;20460;-70
2021/12/12 20:11:18;;;;;;;12.40;8.40;;;6.30;99.90;;;;;;5025372;28;20413;-68
2021/12/12 20:13:49;;;;;;;13.33;8.30;;;6.30;99.90;;;;;;5026633;28;20416;-68
2021/12/12 20:16:27;;;;;;;18.20;8.83;;;6.20;99.90;;;;;;5018703;28;20424;-69
2021/12/12 20:18:54;;;;;;;12.90;7.10;;;6.20;99.90;;;;;;5019732;28;20983;-70